Time;durP1;ratioP1;P1;durP2;ratioP2;P2;SDS_P1;SDS_P2;PMS_P1;PMS_P2;Temp;Humidity;BMP_temperature;BMP_pressure;BME280_temperature;BME280_humidity;BME280_pressure;Samples;Min_cycle;Max_cycle;Signal;HPM_P1;HPM_P2
2022/07/12 00:00:19;;;;;;;0.93;0.30;;;;;;;15.16;85.70;102354.97;2096374;28;21077;-68
2022/07/12 00:01:21;;;;;;;0.80;0.30;;;;;;;15.14;86.00;102358.63;2096549;28;20116;-67
2022/07/12 00:02:25;;;;;;;0.52;0.20;;;;;;;15.11;86.45;102351.50;2095721;28;36271;-68
2022/07/12 00:03:27;;;;;;;0.98;0.30;;;;;;;15.13;86.31;102355.03;2096277;28;23166;-67
2022/07/12 00:04:32;;;;;;;0.55;0.30;;;;;;;15.13;86.20;102344.25;2096342;28;24904;-68
2022/07/12 00:05:34;;;;;;;1.30;0.35;;;;;;;15.12;86.38;102353.25;2096675;28;22235;-67
2022/07/12 00:06:38;;;;;;;0.60;0.22;;;;;;;15.13;86.18;102351.44;2096669;28;22278;-69
2022/07/12 00:07:42;;;;;;;0.93;0.30;;;;;;;15.12;85.95;102349.66;2095659;28;28516;-67
2022/07/12 00:08:45;;;;;;;0.60;0.30;;;;;;;15.14;86.32;102358.63;2096520;28;21298;-70
2022/07/12 00:09:46;;;;;;;0.70;0.20;;;;;;;15.13;85.96;102349.66;2095878;28;35649;-67
2022/07/12 00:10:51;;;;;;;0.90;0.45;;;;;;;15.14;85.90;102356.81;2094978;28;20037;-68
2022/07/12 00:11:55;;;;;;;1.60;0.30;;;;;;;15.14;85.98;102358.63;2095605;28;28952;-67
2022/07/12 00:12:56;;;;;;;1.33;0.30;;;;;;;15.13;86.27;102356.81;2096383;28;23856;-67
2022/07/12 00:13:58;;;;;;;0.40;0.30;;;;;;;15.14;86.37;102353.22;2097136;28;22214;-67
2022/07/12 00:15:00;;;;;;;1.80;0.30;;;;;;;15.14;86.17;102348.72;2096060;28;31355;-66
2022/07/12 00:16:02;;;;;;;0.63;0.30;;;;;;;15.15;86.54;102355.00;2096508;28;21144;-67
2022/07/12 00:17:04;;;;;;;0.57;0.20;;;;;;;15.15;86.69;102353.19;2096108;28;23002;-67
2022/07/12 00:18:06;;;;;;;1.38;0.32;;;;;;;15.15;86.22;102355.00;2096186;28;29281;-67
2022/07/12 00:19:08;;;;;;;1.08;0.22;;;;;;;15.15;86.36;102355.00;2095790;28;23179;-67
2022/07/12 00:20:11;;;;;;;0.93;0.32;;;;;;;15.15;86.79;102350.50;2096873;28;20728;-67
2022/07/12 00:21:12;;;;;;;0.90;0.30;;;;;;;15.14;86.29;102343.31;2096147;28;24941;-67
2022/07/12 00:22:16;;;;;;;0.93;0.30;;;;;;;15.15;86.29;102347.81;2103849;28;20045;-67
2022/07/12 00:23:18;;;;;;;0.60;0.30;;;;;;;15.16;86.73;102343.28;2103869;28;20738;-67
2022/07/12 00:24:20;;;;;;;0.68;0.32;;;;;;;15.16;86.76;102340.59;2096599;28;20037;-67
2022/07/12 00:25:22;;;;;;;0.68;0.30;;;;;;;15.15;86.82;102338.84;2095953;28;30997;-67
2022/07/12 00:26:24;;;;;;;0.80;0.40;;;;;;;15.15;86.73;102336.13;2096794;28;21597;-67
2022/07/12 00:27:25;;;;;;;1.15;0.65;;;;;;;15.14;86.52;102332.53;2096337;28;22441;-67
2022/07/12 00:28:27;;;;;;;1.25;0.50;;;;;;;15.14;86.74;102340.63;2096821;28;20053;-67
2022/07/12 00:29:29;;;;;;;0.40;0.20;;;;;;;15.14;87.12;102337.91;2095820;28;34769;-67
2022/07/12 00:30:33;;;;;;;1.50;0.30;;;;;;;15.14;86.73;102340.63;2096954;28;20965;-67
2022/07/12 00:31:37;;;;;;;0.95;0.30;;;;;;;15.12;86.66;102339.75;2096682;28;20092;-67
2022/07/12 00:32:39;;;;;;;0.60;0.30;;;;;;;15.12;86.70;102334.38;2096461;28;30819;-67
2022/07/12 00:33:45;;;;;;;0.57;0.30;;;;;;;15.12;86.58;102333.47;2096041;28;30443;-67
2022/07/12 00:34:47;;;;;;;0.50;0.20;;;;;;;15.12;86.66;102326.28;2096780;28;22153;-68
2022/07/12 00:35:49;;;;;;;1.42;0.30;;;;;;;15.12;86.49;102337.06;2096450;28;21052;-67
2022/07/12 00:36:51;;;;;;;1.02;0.30;;;;;;;15.13;87.06;102328.06;2095346;28;34806;-67
2022/07/12 00:37:53;;;;;;;1.42;0.32;;;;;;;15.13;86.84;102336.16;2095676;28;26491;-67
2022/07/12 00:38:56;;;;;;;1.30;0.30;;;;;;;15.12;86.95;102330.78;2096983;28;20076;-67
2022/07/12 00:39:58;;;;;;;1.33;0.30;;;;;;;15.11;86.58;102335.31;2095996;28;20694;-67
2022/07/12 00:41:00;;;;;;;0.60;0.30;;;;;;;15.12;86.37;102328.09;2096448;28;29627;-67
2022/07/12 00:42:02;;;;;;;2.53;0.20;;;;;;;15.12;86.74;102320.00;2095811;28;27462;-67
2022/07/12 00:43:04;;;;;;;0.90;0.40;;;;;;;15.12;86.58;102326.28;2096508;28;23195;-67
2022/07/12 00:44:08;;;;;;;0.90;0.32;;;;;;;15.11;86.96;102323.59;2096080;28;27913;-67
2022/07/12 00:45:14;;;;;;;0.50;0.30;;;;;;;15.12;87.21;102328.97;2095195;28;40151;-67
2022/07/12 00:46:22;;;;;;;0.77;0.30;;;;;;;15.12;87.02;102328.97;2095865;28;33714;-67
2022/07/12 00:47:46;;;;;;;0.93;0.30;;;;;;;15.12;87.22;102337.06;2096635;28;26257;-67
2022/07/12 00:48:48;;;;;;;0.95;0.30;;;;;;;15.10;87.11;102330.81;2095516;28;20041;-67
2022/07/12 00:49:50;;;;;;;0.73;0.38;;;;;;;15.10;87.19;102329.94;2087101;28;32367;-67
2022/07/12 00:50:52;;;;;;;1.90;0.30;;;;;;;15.10;86.91;102330.81;2087365;28;29246;-67
2022/07/12 00:51:56;;;;;;;1.67;0.40;;;;;;;15.14;87.22;102326.25;2095194;28;20037;-67
2022/07/12 00:52:58;;;;;;;1.48;0.50;;;;;;;15.12;86.81;102328.09;2096322;28;21063;-68
2022/07/12 00:54:00;;;;;;;0.70;0.32;;;;;;;15.12;86.70;102323.56;2096980;28;20859;-68
2022/07/12 00:55:05;;;;;;;0.98;0.30;;;;;;;15.11;86.83;102316.41;2096248;28;29615;-68
2022/07/12 00:56:07;;;;;;;1.50;0.40;;;;;;;15.11;86.74;102323.59;2103671;28;27954;-68
2022/07/12 00:57:09;;;;;;;1.70;0.40;;;;;;;15.10;86.69;102320.03;2095271;28;20897;-68
2022/07/12 00:58:11;;;;;;;1.65;0.30;;;;;;;15.10;87.06;102308.34;2087450;28;26738;-68
2022/07/12 00:59:12;;;;;;;1.48;0.32;;;;;;;15.10;86.54;102317.31;2096161;28;22608;-68
2022/07/12 01:00:23;;;;;;;0.60;0.35;;;;;;;15.10;87.03;102311.94;2095223;28;34539;-68
2022/07/12 01:01:26;;;;;;;0.63;0.35;;;;;;;15.09;86.85;102310.13;2095908;28;21938;-68
2022/07/12 01:02:28;;;;;;;1.27;0.40;;;;;;;15.10;87.09;102311.94;2103947;28;20918;-67
2022/07/12 01:03:30;;;;;;;0.82;0.20;;;;;;;15.10;87.03;102311.06;2103157;28;35899;-68
2022/07/12 01:04:33;;;;;;;0.38;0.20;;;;;;;15.09;86.92;102307.44;2096026;28;21290;-69
2022/07/12 01:05:41;;;;;;;2.50;0.45;;;;;;;15.10;86.98;102309.22;2092277;28;20040;-68
2022/07/12 01:06:44;;;;;;;0.80;0.20;;;;;;;15.09;86.56;102307.44;2087794;28;20033;-67
2022/07/12 01:07:46;;;;;;;1.15;0.38;;;;;;;15.07;87.04;102309.28;2086979;28;27309;-67
2022/07/12 01:08:48;;;;;;;0.93;0.40;;;;;;;15.06;86.70;102307.53;2087889;28;26779;-67
2022/07/12 01:09:53;;;;;;;0.47;0.30;;;;;;;15.07;87.00;102314.69;2087471;28;21501;-67
2022/07/12 01:10:57;;;;;;;0.77;0.30;;;;;;;15.06;86.84;102303.00;2079666;28;22150;-68
2022/07/12 01:11:59;;;;;;;0.52;0.30;;;;;;;15.06;86.61;102302.13;2088063;28;29861;-67
2022/07/12 01:13:02;;;;;;;1.13;0.30;;;;;;;15.06;86.85;102302.13;2078476;28;28607;-67
2022/07/12 01:14:04;;;;;;;1.02;0.30;;;;;;;15.04;86.75;102302.16;2079221;28;24938;-67
2022/07/12 01:15:08;;;;;;;0.80;0.40;;;;;;;15.04;87.46;102295.88;2086732;28;34625;-68
2022/07/12 01:16:12;;;;;;;1.00;0.40;;;;;;;15.02;86.99;102300.38;2087803;28;20985;-67
2022/07/12 01:17:14;;;;;;;0.60;0.40;;;;;;;15.02;87.35;102298.59;2087302;28;20987;-68
2022/07/12 01:18:17;;;;;;;0.75;0.40;;;;;;;15.03;86.94;102296.78;2087625;28;20119;-68
2022/07/12 01:19:21;;;;;;;1.13;0.70;;;;;;;15.02;87.05;102289.59;2086757;28;29980;-68
2022/07/12 01:20:23;;;;;;;1.27;0.50;;;;;;;15.02;87.14;102298.59;2086888;28;35824;-68
2022/07/12 01:21:29;;;;;;;1.55;0.55;;;;;;;15.03;86.88;102296.78;2087750;28;26114;-68
2022/07/12 01:22:40;;;;;;;1.48;0.60;;;;;;;15.02;86.89;102297.69;2086905;28;30238;-68
2022/07/12 01:23:42;;;;;;;1.25;0.43;;;;;;;15.02;86.95;102297.69;2082014;28;20165;-68
2022/07/12 01:24:45;;;;;;;0.77;0.50;;;;;;;15.01;86.80;102298.63;2088720;28;27144;-68
2022/07/12 01:25:49;;;;;;;0.90;0.50;;;;;;;15.02;87.04;102300.38;2088970;28;20074;-68
2022/07/12 01:26:51;;;;;;;1.80;0.30;;;;;;;15.01;86.86;102299.50;2089704;28;20138;-68
2022/07/12 01:27:55;;;;;;;1.33;0.35;;;;;;;15.00;87.10;102300.44;2087938;28;26171;-68
2022/07/12 01:28:59;;;;;;;0.75;0.32;;;;;;;15.01;87.00;102304.91;2089170;28;20899;-68
2022/07/12 01:30:03;;;;;;;1.52;0.30;;;;;;;15.01;86.97;102301.31;2088274;28;24013;-68
2022/07/12 01:31:05;;;;;;;0.93;0.38;;;;;;;15.02;87.18;102308.47;2081270;28;32913;-68
2022/07/12 01:32:27;;;;;;;0.73;0.40;;;;;;;15.02;87.43;102300.38;2087985;28;38703;-68
2022/07/12 01:33:29;;;;;;;1.73;0.40;;;;;;;15.02;87.21;102297.69;2089544;28;25600;-68
2022/07/12 01:34:31;;;;;;;1.00;0.50;;;;;;;15.03;87.41;102303.06;2088013;28;38704;-66
2022/07/12 01:35:33;;;;;;;0.80;0.40;;;;;;;15.02;86.97;102306.69;2083444;28;22752;-67
2022/07/12 01:36:36;;;;;;;0.88;0.30;;;;;;;15.02;87.43;102311.19;2096593;28;24357;-67
2022/07/12 01:37:41;;;;;;;0.68;0.40;;;;;;;15.02;87.05;102304.00;2088252;28;20042;-68
2022/07/12 01:38:43;;;;;;;1.00;0.40;;;;;;;15.02;87.67;102305.78;2088127;28;20041;-68
2022/07/12 01:39:49;;;;;;;0.60;0.40;;;;;;;15.02;87.30;102311.19;2089338;28;20969;-68
2022/07/12 01:40:50;;;;;;;1.80;0.40;;;;;;;15.01;87.80;102314.81;2088360;28;32903;-68
2022/07/12 01:41:52;;;;;;;0.60;0.40;;;;;;;15.01;87.33;102318.38;2088212;28;34702;-68
2022/07/12 01:42:54;;;;;;;1.92;0.40;;;;;;;15.02;87.33;102324.66;2089385;28;20127;-68
2022/07/12 01:43:57;;;;;;;0.50;0.40;;;;;;;15.01;87.35;102326.47;2080215;28;22489;-68
2022/07/12 01:44:59;;;;;;;0.95;0.40;;;;;;;15.00;87.68;102319.31;2080209;28;25512;-68
2022/07/12 01:46:01;;;;;;;1.05;0.50;;;;;;;14.99;87.37;102320.22;2088872;28;37308;-68
2022/07/12 01:47:03;;;;;;;1.02;0.40;;;;;;;15.00;87.35;102318.41;2088306;28;28171;-68
2022/07/12 01:48:05;;;;;;;0.80;0.47;;;;;;;15.00;87.33;102327.41;2089345;28;20927;-69
2022/07/12 01:49:07;;;;;;;1.45;0.60;;;;;;;15.00;87.13;102329.19;2088283;28;39289;-69
2022/07/12 01:50:11;;;;;;;0.85;0.50;;;;;;;15.01;87.71;102326.47;2089373;28;21575;-69
2022/07/12 01:51:17;;;;;;;2.85;0.50;;;;;;;14.99;87.41;102331.03;2089505;28;20034;-69
2022/07/12 01:52:20;;;;;;;1.38;0.60;;;;;;;14.99;87.58;102324.75;2094750;28;20048;-69
2022/07/12 01:53:22;;;;;;;1.63;0.50;;;;;;;14.99;87.37;102336.41;2105235;28;20810;-69
2022/07/12 01:54:28;;;;;;;1.63;0.50;;;;;;;14.99;87.22;102339.13;2104913;28;21919;-69
2022/07/12 01:55:33;;;;;;;0.70;0.40;;;;;;;15.05;87.88;102343.50;2097130;28;20111;-68
2022/07/12 01:56:39;;;;;;;1.33;0.43;;;;;;;15.02;87.41;102344.47;2104444;28;39526;-68
2022/07/12 01:57:44;;;;;;;0.80;0.50;;;;;;;15.05;87.40;102346.19;2104239;28;20036;-69
2022/07/12 01:58:49;;;;;;;3.00;0.90;;;;;;;15.04;86.81;102350.72;2089944;28;20049;-68
2022/07/12 01:59:51;;;;;;;0.80;0.57;;;;;;;15.04;86.78;102352.53;2096835;28;36407;-68
2022/07/12 02:00:54;;;;;;;0.70;0.40;;;;;;;15.04;86.78;102349.81;2104571;28;20072;-69
2022/07/12 02:01:57;;;;;;;0.95;0.43;;;;;;;15.05;86.66;102348.88;2097208;28;31157;-69
2022/07/12 02:02:59;;;;;;;0.60;0.40;;;;;;;15.03;86.62;102343.53;2095812;28;34938;-68
2022/07/12 02:04:03;;;;;;;1.45;0.50;;;;;;;15.02;86.23;102346.25;2096320;28;36911;-69
2022/07/12 02:05:05;;;;;;;1.25;0.60;;;;;;;15.02;86.45;102340.84;2097096;28;28562;-69
2022/07/12 02:06:07;;;;;;;1.05;0.40;;;;;;;15.03;86.61;102334.56;2097535;28;20556;-69
2022/07/12 02:07:12;;;;;;;0.75;0.45;;;;;;;15.02;86.45;102332.75;2096647;28;29797;-69
2022/07/12 02:08:16;;;;;;;1.02;0.50;;;;;;;15.02;86.50;102332.75;2097160;28;20861;-69
2022/07/12 02:09:18;;;;;;;0.75;0.40;;;;;;;15.02;86.67;102338.16;2096750;28;20037;-69
2022/07/12 02:10:20;;;;;;;0.70;0.30;;;;;;;15.02;86.32;102340.84;2097394;28;24605;-68
2022/07/12 02:11:22;;;;;;;1.13;0.40;;;;;;;15.02;86.50;102339.06;2096550;28;28970;-69
2022/07/12 02:12:24;;;;;;;0.60;0.30;;;;;;;15.02;86.32;102343.53;2097043;28;34224;-68
2022/07/12 02:13:29;;;;;;;1.05;0.30;;;;;;;15.02;86.46;102351.63;2096919;28;20710;-69
2022/07/12 02:14:34;;;;;;;0.40;0.30;;;;;;;15.01;86.79;102352.56;2088734;28;20111;-68
2022/07/12 02:15:36;;;;;;;0.60;0.40;;;;;;;15.02;86.65;102357.94;2096523;28;23839;-68
2022/07/12 02:16:39;;;;;;;0.60;0.30;;;;;;;15.00;86.58;102357.09;2105499;28;20191;-69
2022/07/12 02:17:41;;;;;;;0.57;0.30;;;;;;;15.00;86.46;102358.88;2104572;28;20905;-69
2022/07/12 02:18:45;;;;;;;1.17;0.40;;;;;;;14.99;86.62;102358.00;2096825;28;31296;-69
2022/07/12 02:19:47;;;;;;;0.52;0.38;;;;;;;15.00;87.13;102364.25;2096441;28;34074;-69
2022/07/12 02:20:52;;;;;;;0.65;0.30;;;;;;;14.99;86.88;102366.09;2096536;28;27361;-69
2022/07/12 02:21:54;;;;;;;0.70;0.32;;;;;;;15.00;87.09;102366.97;2095514;28;28169;-68
2022/07/12 02:22:58;;;;;;;0.70;0.30;;;;;;;15.00;87.36;102367.88;2096520;28;34269;-69
2022/07/12 02:24:01;;;;;;;1.10;0.30;;;;;;;15.00;87.10;102367.88;2097082;28;22970;-69
2022/07/12 02:25:03;;;;;;;1.48;0.30;;;;;;;15.00;87.18;102365.19;2097166;28;26466;-67
2022/07/12 02:26:08;;;;;;;0.95;0.32;;;;;;;15.00;87.20;102359.78;2096874;28;31978;-69
2022/07/12 02:27:09;;;;;;;1.20;0.40;;;;;;;15.00;87.65;102367.88;2097174;28;28340;-69
2022/07/12 02:28:11;;;;;;;0.80;0.60;;;;;;;14.99;87.31;102370.59;2104770;28;20159;-68
2022/07/12 02:29:13;;;;;;;0.80;0.40;;;;;;;14.99;87.24;102365.19;2103904;28;41476;-68
2022/07/12 02:30:15;;;;;;;1.52;0.50;;;;;;;15.00;87.93;102364.25;2096525;28;26073;-69
2022/07/12 02:31:17;;;;;;;1.13;0.50;;;;;;;14.98;88.04;102364.28;2097577;28;20954;-68
2022/07/12 02:32:19;;;;;;;0.95;0.52;;;;;;;14.98;87.87;102372.38;2096856;28;20040;-69
2022/07/12 02:33:21;;;;;;;2.55;0.50;;;;;;;14.99;88.14;102378.69;2097043;28;30955;-68
2022/07/12 02:34:23;;;;;;;1.33;0.40;;;;;;;15.00;88.13;102369.66;2096139;28;30141;-69
2022/07/12 02:35:25;;;;;;;0.60;0.40;;;;;;;14.98;88.39;102366.09;2097322;28;25219;-68
2022/07/12 02:36:29;;;;;;;1.02;0.47;;;;;;;14.97;87.88;102367.94;2096801;28;31918;-69
2022/07/12 02:37:31;;;;;;;2.15;0.43;;;;;;;14.98;88.26;102368.81;2096422;28;37969;-68
2022/07/12 02:38:33;;;;;;;1.88;0.40;;;;;;;14.97;88.34;102361.66;2096843;28;24041;-68
2022/07/12 02:39:34;;;;;;;1.80;0.40;;;;;;;14.97;88.13;102358.94;2097455;28;20076;-69
2022/07/12 02:40:54;;;;;;;1.38;0.40;;;;;;;14.96;88.27;102357.16;2096482;28;37695;-69
2022/07/12 02:41:56;;;;;;;1.13;0.45;;;;;;;14.96;88.96;102358.03;2096814;28;37574;-69
2022/07/12 02:42:59;;;;;;;1.23;0.57;;;;;;;14.95;88.67;102358.06;2096816;28;20049;-69
2022/07/12 02:44:01;;;;;;;2.05;0.63;;;;;;;14.95;88.47;102358.06;2097232;28;26808;-68
2022/07/12 02:45:04;;;;;;;0.98;0.52;;;;;;;14.94;89.00;102356.31;2104634;28;26637;-68
2022/07/12 02:46:11;;;;;;;0.95;0.68;;;;;;;14.93;89.18;102355.44;2104362;28;35574;-68
2022/07/12 02:47:15;;;;;;;0.70;0.40;;;;;;;14.94;88.82;102356.31;2096801;28;26769;-68
2022/07/12 02:48:18;;;;;;;0.95;0.52;;;;;;;14.94;89.00;102356.31;2104589;28;28117;-69
2022/07/12 02:49:20;;;;;;;0.88;0.47;;;;;;;14.94;88.58;102353.59;2104404;28;20162;-68
2022/07/12 02:50:22;;;;;;;1.15;0.40;;;;;;;14.93;88.91;102355.44;2097085;28;25584;-68
2022/07/12 02:51:26;;;;;;;0.80;0.43;;;;;;;14.94;88.95;102353.59;2095571;28;31093;-68
2022/07/12 02:52:29;;;;;;;1.50;0.60;;;;;;;14.94;88.87;102359.00;2096949;28;20171;-69
2022/07/12 02:53:32;;;;;;;0.90;0.50;;;;;;;14.93;89.03;102357.22;2096729;28;24147;-68
2022/07/12 02:54:39;;;;;;;0.90;0.50;;;;;;;14.93;89.21;102368.00;2105120;28;20775;-69
2022/07/12 02:55:41;;;;;;;1.48;0.40;;;;;;;14.93;89.34;102370.69;2103471;28;21886;-68
2022/07/12 02:56:43;;;;;;;0.70;0.30;;;;;;;14.93;89.08;102368.00;2097005;28;21299;-69
2022/07/12 02:57:45;;;;;;;1.10;0.47;;;;;;;14.92;89.06;102374.31;2096466;28;24988;-69
2022/07/12 02:58:46;;;;;;;1.10;0.70;;;;;;;14.93;89.13;102357.22;2104921;28;20517;-69
2022/07/12 02:59:48;;;;;;;1.00;0.50;;;;;;;14.93;89.30;102365.28;2103933;28;20410;-69
2022/07/12 03:00:53;;;;;;;1.08;0.70;;;;;;;14.93;89.14;102362.59;2097179;28;20099;-69
2022/07/12 03:01:56;;;;;;;0.80;0.55;;;;;;;14.92;89.62;102364.41;2097653;28;20167;-69
2022/07/12 03:02:58;;;;;;;1.60;0.85;;;;;;;14.92;89.77;102359.03;2097229;28;20036;-69
2022/07/12 03:04:00;;;;;;;0.85;0.60;;;;;;;14.92;89.41;102356.31;2096504;28;34825;-69
2022/07/12 03:05:02;;;;;;;1.25;0.55;;;;;;;14.93;89.46;102359.91;2104996;28;20036;-69
2022/07/12 03:06:04;;;;;;;2.30;0.80;;;;;;;14.92;89.44;102358.16;2103874;28;31252;-69
2022/07/12 03:07:06;;;;;;;1.30;0.77;;;;;;;14.93;89.34;102359.91;2096916;28;25453;-69
2022/07/12 03:08:09;;;;;;;2.30;0.90;;;;;;;14.92;89.51;102352.75;2104277;28;20036;-69
2022/07/12 03:09:11;;;;;;;1.10;0.80;;;;;;;14.93;89.79;102354.50;2104115;28;31212;-69
2022/07/12 03:10:14;;;;;;;2.22;0.90;;;;;;;14.93;89.46;102351.81;2103651;28;37741;-69
2022/07/12 03:11:16;;;;;;;1.13;0.93;;;;;;;14.94;89.52;102359.00;2104563;28;24109;-68
2022/07/12 03:12:17;;;;;;;1.38;0.80;;;;;;;14.94;89.76;102356.31;2096299;28;34252;-69
2022/07/12 03:13:19;;;;;;;1.42;1.10;;;;;;;14.93;89.73;102354.50;2097003;28;20674;-69
2022/07/12 03:14:23;;;;;;;1.23;0.90;;;;;;;14.92;89.65;102353.63;2096059;28;32363;-69
2022/07/12 03:15:26;;;;;;;1.63;0.80;;;;;;;14.92;89.97;102359.03;2096980;28;22910;-68
2022/07/12 03:16:30;;;;;;;1.23;0.90;;;;;;;14.93;89.78;102357.22;2096434;28;33133;-69
2022/07/12 03:17:33;;;;;;;2.08;1.00;;;;;;;14.94;89.90;102359.88;2097113;28;20083;-69
2022/07/12 03:18:35;;;;;;;1.08;0.98;;;;;;;14.93;89.71;102360.81;2104198;28;31820;-69
2022/07/12 03:19:39;;;;;;;1.25;0.90;;;;;;;14.93;90.42;102360.81;2104056;28;20038;-69
2022/07/12 03:20:41;;;;;;;1.33;0.90;;;;;;;14.94;90.05;102356.31;2096491;28;22602;-69
2022/07/12 03:21:43;;;;;;;1.10;1.00;;;;;;;14.94;89.88;102353.59;2096283;28;35604;-69
2022/07/12 03:22:49;;;;;;;1.58;0.90;;;;;;;14.94;90.12;102356.31;2096691;28;27278;-69
2022/07/12 03:24:21;;;;;;;2.25;1.02;;;;;;;14.93;90.10;102357.22;2097679;28;20180;-67
2022/07/12 03:25:30;;;;;;;1.50;0.55;;;;;;;14.92;89.98;102359.03;2096897;28;32476;-69
2022/07/12 03:26:32;;;;;;;1.10;0.70;;;;;;;14.95;89.57;102363.47;2095524;28;36063;-69
2022/07/12 03:27:34;;;;;;;2.03;0.80;;;;;;;14.93;90.30;102371.59;2096191;28;26319;-69
2022/07/12 03:28:41;;;;;;;2.75;0.80;;;;;;;14.93;90.18;102366.22;2096527;28;26103;-69
2022/07/12 03:29:43;;;;;;;1.10;0.73;;;;;;;14.94;90.14;102370.66;2096131;28;20907;-69
2022/07/12 03:30:45;;;;;;;0.80;0.60;;;;;;;14.94;89.88;102367.09;2096144;28;23067;-68
2022/07/12 03:31:47;;;;;;;2.25;0.60;;;;;;;14.95;90.08;102371.53;2096312;28;20090;-68
2022/07/12 03:32:51;;;;;;;2.50;0.50;;;;;;;14.96;90.11;102363.44;2096341;28;22215;-68
2022/07/12 03:33:54;;;;;;;1.20;0.80;;;;;;;14.97;90.41;102367.03;2096374;28;20247;-68
2022/07/12 03:34:56;;;;;;;1.80;0.90;;;;;;;14.97;90.05;102367.03;2096459;28;20044;-69
2022/07/12 03:35:58;;;;;;;1.15;0.73;;;;;;;14.96;90.01;102368.81;2096615;28;28698;-69
2022/07/12 03:37:00;;;;;;;1.33;0.93;;;;;;;14.96;90.13;102370.66;2104130;28;20175;-68
2022/07/12 03:38:04;;;;;;;1.08;0.80;;;;;;;14.95;90.20;102367.06;2104156;28;28194;-68
2022/07/12 03:39:05;;;;;;;1.42;0.95;;;;;;;14.96;89.80;102368.81;2088065;28;20127;-68
2022/07/12 03:40:08;;;;;;;2.65;1.20;;;;;;;14.97;90.03;102369.75;2096176;28;26027;-68
2022/07/12 03:41:10;;;;;;;1.90;0.80;;;;;;;14.97;89.68;102365.22;2104620;28;20667;-68
2022/07/12 03:42:12;;;;;;;0.95;0.60;;;;;;;14.97;90.04;102364.34;2103682;28;40884;-68
2022/07/12 03:43:14;;;;;;;1.65;0.80;;;;;;;14.98;89.66;102363.41;2096688;28;20102;-68
2022/07/12 03:44:16;;;;;;;1.38;0.82;;;;;;;14.99;90.01;102363.38;2096524;28;33696;-68
2022/07/12 03:45:18;;;;;;;1.38;0.90;;;;;;;14.99;89.80;102362.50;2103916;28;22082;-68
2022/07/12 03:46:19;;;;;;;1.15;0.77;;;;;;;14.99;89.79;102362.50;2103729;28;37860;-68
2022/07/12 03:47:21;;;;;;;0.90;0.63;;;;;;;15.01;89.81;102363.38;2096656;28;21035;-68
2022/07/12 03:48:23;;;;;;;1.00;0.80;;;;;;;15.00;89.77;102357.09;2096784;28;20126;-68
2022/07/12 03:49:25;;;;;;;0.88;0.70;;;;;;;15.02;89.48;102365.13;2096774;28;20923;-69
2022/07/12 03:50:27;;;;;;;1.45;0.80;;;;;;;15.02;89.89;102359.72;2097135;28;20230;-68
2022/07/12 03:51:29;;;;;;;1.05;0.70;;;;;;;15.02;89.55;102362.44;2103635;28;34735;-68
2022/07/12 03:52:33;;;;;;;0.88;0.75;;;;;;;15.02;89.46;102359.72;2104063;28;26450;-68
2022/07/12 03:53:35;;;;;;;1.55;1.15;;;;;;;15.03;89.71;102364.22;2096515;28;26139;-68
2022/07/12 03:54:37;;;;;;;1.27;0.90;;;;;;;15.02;89.75;102360.63;2097073;28;21273;-67
2022/07/12 03:55:38;;;;;;;1.23;1.05;;;;;;;15.03;89.48;102359.72;2104121;28;20136;-68
2022/07/12 03:58:00;;;;;;;1.00;0.80;;;;;;;15.01;89.31;102349.88;2096786;28;20849;-68
2022/07/12 03:59:03;;;;;;;2.10;0.98;;;;;;;15.01;89.79;102360.66;2096931;28;20037;-68
2022/07/12 04:00:12;;;;;;;1.15;0.70;;;;;;;15.01;89.34;102360.66;2096092;28;34505;-68
2022/07/12 04:01:17;;;;;;;1.02;0.57;;;;;;;15.02;89.54;102359.72;2097267;28;20033;-68
2022/07/12 04:02:19;;;;;;;1.30;1.00;;;;;;;15.02;89.28;102354.34;2096351;28;20153;-68
2022/07/12 04:03:21;;;;;;;1.88;1.00;;;;;;;15.02;89.32;102365.13;2096627;28;29083;-68
2022/07/12 04:04:28;;;;;;;1.40;0.85;;;;;;;15.01;89.46;102361.53;2096632;28;20179;-68
2022/07/12 04:05:30;;;;;;;1.20;0.80;;;;;;;15.01;89.87;102356.16;2096566;28;24395;-68
2022/07/12 04:06:35;;;;;;;1.45;1.00;;;;;;;15.02;89.47;102360.63;2096222;28;20037;-68
2022/07/12 04:07:37;;;;;;;1.55;1.02;;;;;;;15.01;89.70;102364.25;2095800;28;25528;-68
2022/07/12 04:08:39;;;;;;;1.58;0.70;;;;;;;15.02;89.80;102365.13;2103405;28;20063;-69
2022/07/12 04:09:46;;;;;;;2.63;1.65;;;;;;;15.01;89.45;102363.38;2103947;28;20040;-69
2022/07/12 04:10:48;;;;;;;2.13;1.90;;;;;;;15.00;88.73;102367.88;2095789;28;20044;-68
2022/07/12 04:11:50;;;;;;;3.00;1.83;;;;;;;14.99;88.76;102365.19;2095794;28;22191;-68
2022/07/12 04:12:54;;;;;;;2.22;2.03;;;;;;;14.98;88.95;102366.09;2104343;28;20194;-68
2022/07/12 04:13:56;;;;;;;1.92;1.50;;;;;;;14.98;89.28;102367.00;2096286;28;26430;-68
2022/07/12 04:14:58;;;;;;;1.55;1.45;;;;;;;14.99;88.75;102370.59;2096076;28;24830;-68
2022/07/12 04:16:00;;;;;;;1.40;1.30;;;;;;;14.99;88.90;102362.50;2096297;28;36126;-68
2022/07/12 04:17:05;;;;;;;2.38;1.50;;;;;;;14.99;88.52;102363.38;2096426;28;26211;-67
2022/07/12 04:18:09;;;;;;;2.13;1.00;;;;;;;15.00;88.67;102365.19;2096286;28;29377;-68
2022/07/12 04:19:11;;;;;;;1.88;1.10;;;;;;;15.01;88.91;102368.75;2096122;28;29899;-68
2022/07/12 04:20:15;;;;;;;1.33;1.13;;;;;;;15.01;88.42;102364.25;2096939;28;23562;-68
2022/07/12 04:21:19;;;;;;;2.20;0.82;;;;;;;15.02;88.54;102366.03;2096227;28;20096;-68
2022/07/12 04:22:21;;;;;;;1.02;0.82;;;;;;;15.02;88.35;102368.72;2096087;28;27212;-69
2022/07/12 04:23:22;;;;;;;2.10;1.00;;;;;;;15.03;88.49;102372.31;2096780;28;20809;-68
2022/07/12 04:24:26;;;;;;;2.17;1.00;;;;;;;15.03;88.76;102370.50;2096792;28;20103;-68
2022/07/12 04:25:27;;;;;;;1.77;0.95;;;;;;;15.04;88.33;102368.72;2095538;28;39949;-69
2022/07/12 04:26:29;;;;;;;1.95;1.00;;;;;;;15.06;88.62;102372.25;2096676;28;20049;-68
2022/07/12 04:27:34;;;;;;;1.00;0.70;;;;;;;15.09;88.29;102377.56;2096201;28;30613;-68
2022/07/12 04:28:35;;;;;;;0.98;0.80;;;;;;;15.11;88.45;102373.06;2096643;28;20134;-68
2022/07/12 04:29:39;;;;;;;2.15;1.00;;;;;;;15.13;88.11;102373.94;2096439;28;21630;-68
2022/07/12 04:30:44;;;;;;;1.20;0.68;;;;;;;15.15;88.04;102382.88;2096644;28;23229;-68
2022/07/12 04:31:46;;;;;;;2.55;0.93;;;;;;;15.17;88.16;102375.63;2096398;28;35575;-68
2022/07/12 04:32:52;;;;;;;0.82;0.75;;;;;;;15.20;88.12;102382.78;2096538;28;20033;-68
2022/07/12 04:33:57;;;;;;;1.30;1.05;;;;;;;15.22;88.28;102384.53;2096008;28;27900;-68
2022/07/12 04:35:00;;;;;;;1.30;0.85;;;;;;;15.23;87.42;102380.91;2103505;28;29123;-68
2022/07/12 04:36:02;;;;;;;1.88;1.10;;;;;;;15.28;87.24;102380.81;2103557;28;29983;-68
2022/07/12 04:37:04;;;;;;;1.80;1.00;;;;;;;15.26;87.04;102378.16;2095846;28;20049;-67
2022/07/12 04:38:07;;;;;;;1.70;0.95;;;;;;;15.30;87.30;102383.50;2095193;28;40911;-68
2022/07/12 04:39:09;;;;;;;1.35;1.10;;;;;;;15.29;86.51;102390.72;2095083;28;37124;-68
2022/07/12 04:40:12;;;;;;;1.60;1.50;;;;;;;15.25;86.49;102388.97;2096043;28;20045;-68
2022/07/12 04:41:15;;;;;;;1.25;1.15;;;;;;;15.29;86.85;102388.03;2095804;28;29452;-68
2022/07/12 04:42:21;;;;;;;2.45;1.05;;;;;;;15.30;86.24;102392.47;2096816;28;22078;-68
2022/07/12 04:43:26;;;;;;;1.92;1.00;;;;;;;15.33;86.64;102392.44;2089674;28;34489;-68
2022/07/12 04:44:28;;;;;;;1.42;0.90;;;;;;;15.34;86.45;102391.47;2096744;28;20041;-69
2022/07/12 04:45:30;;;;;;;1.00;0.90;;;;;;;15.38;85.98;102389.63;2095144;28;26705;-68
2022/07/12 04:46:31;;;;;;;2.00;0.90;;;;;;;15.40;85.99;102390.50;2096072;28;22666;-68
2022/07/12 04:47:37;;;;;;;1.45;0.70;;;;;;;15.42;85.84;102392.25;2103672;28;21429;-68
2022/07/12 04:48:39;;;;;;;0.93;0.65;;;;;;;15.44;85.47;102385.00;2096493;28;20037;-68
2022/07/12 04:49:41;;;;;;;1.00;0.80;;;;;;;15.46;85.89;102393.06;2096119;28;30517;-68
2022/07/12 04:50:43;;;;;;;1.23;0.90;;;;;;;15.49;86.00;102390.31;2096649;28;20913;-68
2022/07/12 04:51:45;;;;;;;1.55;0.82;;;;;;;15.51;86.02;102395.69;2096148;28;23636;-67
2022/07/12 04:52:47;;;;;;;1.00;0.85;;;;;;;15.55;85.63;102397.41;2095878;28;20045;-67
2022/07/12 04:53:49;;;;;;;1.40;0.70;;;;;;;15.58;85.71;102387.41;2095815;28;31853;-68
2022/07/12 04:54:51;;;;;;;1.27;0.80;;;;;;;15.60;85.06;102390.97;2096446;28;25272;-67